sensor_id;sensor_type;location;lat;lon;timestamp;pressure;altitude;pressure_sealevel;temperature
33877;BMP180;20166;51.738;7.158;2023-08-08T00:00:12;100914.00;;;13.70
33877;BMP180;20166;51.738;7.158;2023-08-08T00:02:59;100909.00;;;13.70
33877;BMP180;20166;51.738;7.158;2023-08-08T00:05:46;100910.00;;;13.80
33877;BMP180;20166;51.738;7.158;2023-08-08T00:08:33;100901.00;;;13.70
33877;BMP180;20166;51.738;7.158;2023-08-08T00:11:20;100893.00;;;13.70
33877;BMP180;20166;51.738;7.158;2023-08-08T00:14:08;100889.00;;;13.80
33877;BMP180;20166;51.738;7.158;2023-08-08T00:16:54;100881.00;;;13.60
33877;BMP180;20166;51.738;7.158;2023-08-08T00:19:40;100880.00;;;13.80
33877;BMP180;20166;51.738;7.158;2023-08-08T00:22:27;100891.00;;;13.70
33877;BMP180;20166;51.738;7.158;2023-08-08T00:25:13;100894.00;;;13.70
33877;BMP180;20166;51.738;7.158;2023-08-08T00:28:00;100901.00;;;13.60
33877;BMP180;20166;51.738;7.158;2023-08-08T00:30:48;100904.00;;;13.70
33877;BMP180;20166;51.738;7.158;2023-08-08T00:33:34;100893.00;;;13.80
33877;BMP180;20166;51.738;7.158;2023-08-08T00:36:21;100889.00;;;13.70
33877;BMP180;20166;51.738;7.158;2023-08-08T00:39:07;100888.00;;;13.70
33877;BMP180;20166;51.738;7.158;2023-08-08T00:41:55;100882.00;;;13.80
33877;BMP180;20166;51.738;7.158;2023-08-08T00:44:42;100883.00;;;13.80
33877;BMP180;20166;51.738;7.158;2023-08-08T00:47:30;100882.00;;;13.70
33877;BMP180;20166;51.738;7.158;2023-08-08T00:50:16;100870.00;;;13.60
33877;BMP180;20166;51.738;7.158;2023-08-08T00:53:03;100869.00;;;13.60
33877;BMP180;20166;51.738;7.158;2023-08-08T00:55:51;100867.00;;;13.50
33877;BMP180;20166;51.738;7.158;2023-08-08T00:58:37;100871.00;;;13.40
33877;BMP180;20166;51.738;7.158;2023-08-08T01:01:24;100869.00;;;13.60
33877;BMP180;20166;51.738;7.158;2023-08-08T01:04:12;100872.00;;;13.30
33877;BMP180;20166;51.738;7.158;2023-08-08T01:07:05;100868.00;;;13.40
33877;BMP180;20166;51.738;7.158;2023-08-08T01:09:57;100876.00;;;13.30
33877;BMP180;20166;51.738;7.158;2023-08-08T01:12:55;100868.00;;;13.20
33877;BMP180;20166;51.738;7.158;2023-08-08T01:15:45;100875.00;;;13.20
33877;BMP180;20166;51.738;7.158;2023-08-08T01:18:33;100868.00;;;13.10
33877;BMP180;20166;51.738;7.158;2023-08-08T01:21:22;100865.00;;;13.00
33877;BMP180;20166;51.738;7.158;2023-08-08T01:24:17;100874.00;;;13.10
33877;BMP180;20166;51.738;7.158;2023-08-08T01:27:04;100878.00;;;13.10
33877;BMP180;20166;51.738;7.158;2023-08-08T01:29:52;100871.00;;;13.00
33877;BMP180;20166;51.738;7.158;2023-08-08T01:32:39;100869.00;;;12.90
33877;BMP180;20166;51.738;7.158;2023-08-08T01:35:30;100868.00;;;12.80
33877;BMP180;20166;51.738;7.158;2023-08-08T01:38:20;100851.00;;;12.80
33877;BMP180;20166;51.738;7.158;2023-08-08T01:41:10;100845.00;;;12.80
33877;BMP180;20166;51.738;7.158;2023-08-08T01:43:56;100853.00;;;12.90
33877;BMP180;20166;51.738;7.158;2023-08-08T01:46:43;100851.00;;;12.60
33877;BMP180;20166;51.738;7.158;2023-08-08T01:49:30;100862.00;;;12.70
33877;BMP180;20166;51.738;7.158;2023-08-08T01:52:16;100853.00;;;12.80
33877;BMP180;20166;51.738;7.158;2023-08-08T01:55:03;100853.00;;;12.70
33877;BMP180;20166;51.738;7.158;2023-08-08T01:57:51;100848.00;;;12.90
33877;BMP180;20166;51.738;7.158;2023-08-08T02:00:37;100846.00;;;13.00
33877;BMP180;20166;51.738;7.158;2023-08-08T02:03:26;100844.00;;;13.00
33877;BMP180;20166;51.738;7.158;2023-08-08T02:06:13;100834.00;;;13.10
33877;BMP180;20166;51.738;7.158;2023-08-08T02:08:59;100824.00;;;13.20
33877;BMP180;20166;51.738;7.158;2023-08-08T02:11:45;100822.00;;;13.10
33877;BMP180;20166;51.738;7.158;2023-08-08T02:14:33;100817.00;;;13.20
33877;BMP180;20166;51.738;7.158;2023-08-08T02:17:20;100819.00;;;13.10
33877;BMP180;20166;51.738;7.158;2023-08-08T02:20:07;100822.00;;;13.20
33877;BMP180;20166;51.738;7.158;2023-08-08T02:22:54;100826.00;;;13.20
33877;BMP180;20166;51.738;7.158;2023-08-08T02:25:40;100824.00;;;13.30
33877;BMP180;20166;51.738;7.158;2023-08-08T02:28:26;100819.00;;;13.30
33877;BMP180;20166;51.738;7.158;2023-08-08T02:31:14;100817.00;;;13.50
33877;BMP180;20166;51.738;7.158;2023-08-08T02:34:06;100824.00;;;13.30
33877;BMP180;20166;51.738;7.158;2023-08-08T02:36:52;100821.00;;;13.40
33877;BMP180;20166;51.738;7.158;2023-08-08T02:39:38;100815.00;;;13.30
33877;BMP180;20166;51.738;7.158;2023-08-08T02:42:25;100824.00;;;13.30
33877;BMP180;20166;51.738;7.158;2023-08-08T02:45:11;100807.00;;;13.40
33877;BMP180;20166;51.738;7.158;2023-08-08T02:47:59;100802.00;;;13.40
33877;BMP180;20166;51.738;7.158;2023-08-08T02:50:46;100801.00;;;13.40
33877;BMP180;20166;51.738;7.158;2023-08-08T02:53:33;100802.00;;;13.40
33877;BMP180;20166;51.738;7.158;2023-08-08T02:56:19;100795.00;;;13.30
33877;BMP180;20166;51.738;7.158;2023-08-08T02:59:06;100785.00;;;13.20
33877;BMP180;20166;51.738;7.158;2023-08-08T03:01:52;100784.00;;;13.20
33877;BMP180;20166;51.738;7.158;2023-08-08T03:04:40;100780.00;;;13.20
33877;BMP180;20166;51.738;7.158;2023-08-08T03:07:26;100773.00;;;13.30
33877;BMP180;20166;51.738;7.158;2023-08-08T03:10:13;100777.00;;;13.20
33877;BMP180;20166;51.738;7.158;2023-08-08T03:12:59;100774.00;;;13.40
33877;BMP180;20166;51.738;7.158;2023-08-08T03:15:46;100771.00;;;13.30
33877;BMP180;20166;51.738;7.158;2023-08-08T03:18:32;100774.00;;;13.30
33877;BMP180;20166;51.738;7.158;2023-08-08T03:21:20;100767.00;;;13.50
33877;BMP180;20166;51.738;7.158;2023-08-08T03:24:07;100765.00;;;13.50
33877;BMP180;20166;51.738;7.158;2023-08-08T03:26:54;100775.00;;;13.50
33877;BMP180;20166;51.738;7.158;2023-08-08T03:29:40;100763.00;;;13.50
33877;BMP180;20166;51.738;7.158;2023-08-08T03:32:27;100753.00;;;13.60
33877;BMP180;20166;51.738;7.158;2023-08-08T03:35:14;100762.00;;;13.70
33877;BMP180;20166;51.738;7.158;2023-08-08T03:38:02;100758.00;;;13.60
33877;BMP180;20166;51.738;7.158;2023-08-08T03:40:50;100747.00;;;13.80
33877;BMP180;20166;51.738;7.158;2023-08-08T03:43:37;100759.00;;;13.50
33877;BMP180;20166;51.738;7.158;2023-08-08T03:46:23;100756.00;;;13.40
33877;BMP180;20166;51.738;7.158;2023-08-08T03:49:09;100758.00;;;13.50
33877;BMP180;20166;51.738;7.158;2023-08-08T03:51:56;100762.00;;;13.50
33877;BMP180;20166;51.738;7.158;2023-08-08T03:54:43;100766.00;;;13.50
33877;BMP180;20166;51.738;7.158;2023-08-08T03:57:30;100768.00;;;13.50
33877;BMP180;20166;51.738;7.158;2023-08-08T04:00:16;100765.00;;;13.50
33877;BMP180;20166;51.738;7.158;2023-08-08T04:03:04;100772.00;;;13.60
33877;BMP180;20166;51.738;7.158;2023-08-08T04:05:50;100765.00;;;13.50
33877;BMP180;20166;51.738;7.158;2023-08-08T04:08:37;100763.00;;;13.40
33877;BMP180;20166;51.738;7.158;2023-08-08T04:11:24;100770.00;;;13.50
33877;BMP180;20166;51.738;7.158;2023-08-08T04:14:10;100766.00;;;13.50
33877;BMP180;20166;51.738;7.158;2023-08-08T04:16:57;100761.00;;;13.60
33877;BMP180;20166;51.738;7.158;2023-08-08T04:19:43;100769.00;;;13.70
33877;BMP180;20166;51.738;7.158;2023-08-08T04:22:30;100763.00;;;13.70
33877;BMP180;20166;51.738;7.158;2023-08-08T04:25:16;100763.00;;;13.70
33877;BMP180;20166;51.738;7.158;2023-08-08T04:28:04;100756.00;;;13.70
33877;BMP180;20166;51.738;7.158;2023-08-08T04:30:51;100760.00;;;13.70
33877;BMP180;20166;51.738;7.158;2023-08-08T04:33:37;100757.00;;;13.80
33877;BMP180;20166;51.738;7.158;2023-08-08T04:36:24;100757.00;;;13.80
33877;BMP180;20166;51.738;7.158;2023-08-08T04:39:11;100757.00;;;13.80
33877;BMP180;20166;51.738;7.158;2023-08-08T04:41:57;100757.00;;;13.80
33877;BMP180;20166;51.738;7.158;2023-08-08T04:44:45;100747.00;;;13.80
33877;BMP180;20166;51.738;7.158;2023-08-08T04:47:32;100751.00;;;14.10
33877;BMP180;20166;51.738;7.158;2023-08-08T04:50:18;100750.00;;;14.10
33877;BMP180;20166;51.738;7.158;2023-08-08T04:53:05;100751.00;;;14.10
33877;BMP180;20166;51.738;7.158;2023-08-08T04:55:52;100751.00;;;14.10
33877;BMP180;20166;51.738;7.158;2023-08-08T04:58:38;100748.00;;;14.10
33877;BMP180;20166;51.738;7.158;2023-08-08T05:01:26;100733.00;;;14.20
33877;BMP180;20166;51.738;7.158;2023-08-08T05:04:12;100736.00;;;14.20
33877;BMP180;20166;51.738;7.158;2023-08-08T05:06:59;100750.00;;;14.30
33877;BMP180;20166;51.738;7.158;2023-08-08T05:09:45;100751.00;;;14.30
33877;BMP180;20166;51.738;7.158;2023-08-08T05:12:32;100744.00;;;14.20
33877;BMP180;20166;51.738;7.158;2023-08-08T05:15:18;100757.00;;;14.30
33877;BMP180;20166;51.738;7.158;2023-08-08T05:18:06;100744.00;;;14.50
33877;BMP180;20166;51.738;7.158;2023-08-08T05:20:52;100747.00;;;14.50
33877;BMP180;20166;51.738;7.158;2023-08-08T05:23:39;100750.00;;;14.40
33877;BMP180;20166;51.738;7.158;2023-08-08T05:26:25;100747.00;;;14.60
33877;BMP180;20166;51.738;7.158;2023-08-08T05:29:12;100742.00;;;14.60
33877;BMP180;20166;51.738;7.158;2023-08-08T05:31:59;100747.00;;;14.50
33877;BMP180;20166;51.738;7.158;2023-08-08T05:34:49;100744.00;;;14.60
33877;BMP180;20166;51.738;7.158;2023-08-08T05:37:36;100745.00;;;14.60
33877;BMP180;20166;51.738;7.158;2023-08-08T05:40:22;100742.00;;;14.60
33877;BMP180;20166;51.738;7.158;2023-08-08T05:43:08;100729.00;;;14.80
33877;BMP180;20166;51.738;7.158;2023-08-08T05:45:54;100727.00;;;14.90
33877;BMP180;20166;51.738;7.158;2023-08-08T05:48:41;100724.00;;;14.90
33877;BMP180;20166;51.738;7.158;2023-08-08T05:51:29;100735.00;;;14.90
33877;BMP180;20166;51.738;7.158;2023-08-08T05:54:16;100746.00;;;14.90
33877;BMP180;20166;51.738;7.158;2023-08-08T05:57:03;100751.00;;;14.80
33877;BMP180;20166;51.738;7.158;2023-08-08T05:59:49;100745.00;;;14.80
33877;BMP180;20166;51.738;7.158;2023-08-08T06:02:36;100754.00;;;14.60
33877;BMP180;20166;51.738;7.158;2023-08-08T06:05:22;100750.00;;;14.70
33877;BMP180;20166;51.738;7.158;2023-08-08T06:08:11;100755.00;;;14.80
33877;BMP180;20166;51.738;7.158;2023-08-08T06:10:58;100763.00;;;14.80
33877;BMP180;20166;51.738;7.158;2023-08-08T06:13:45;100757.00;;;14.90
33877;BMP180;20166;51.738;7.158;2023-08-08T06:16:32;100751.00;;;14.90
33877;BMP180;20166;51.738;7.158;2023-08-08T06:19:18;100750.00;;;14.90
33877;BMP180;20166;51.738;7.158;2023-08-08T06:22:05;100759.00;;;14.90
33877;BMP180;20166;51.738;7.158;2023-08-08T06:24:52;100756.00;;;14.90
33877;BMP180;20166;51.738;7.158;2023-08-08T06:27:39;100755.00;;;15.00
33877;BMP180;20166;51.738;7.158;2023-08-08T06:30:25;100760.00;;;15.00
33877;BMP180;20166;51.738;7.158;2023-08-08T06:33:12;100763.00;;;15.00
33877;BMP180;20166;51.738;7.158;2023-08-08T06:35:58;100755.00;;;15.00
33877;BMP180;20166;51.738;7.158;2023-08-08T06:38:45;100747.00;;;15.10
33877;BMP180;20166;51.738;7.158;2023-08-08T06:41:32;100751.00;;;15.10
33877;BMP180;20166;51.738;7.158;2023-08-08T06:44:19;100751.00;;;15.20
33877;BMP180;20166;51.738;7.158;2023-08-08T06:47:05;100749.00;;;15.40
33877;BMP180;20166;51.738;7.158;2023-08-08T06:49:52;100748.00;;;15.60
33877;BMP180;20166;51.738;7.158;2023-08-08T06:52:39;100756.00;;;15.50
33877;BMP180;20166;51.738;7.158;2023-08-08T06:55:26;100756.00;;;15.50
33877;BMP180;20166;51.738;7.158;2023-08-08T06:58:14;100736.00;;;15.70
33877;BMP180;20166;51.738;7.158;2023-08-08T07:01:00;100734.00;;;15.90
33877;BMP180;20166;51.738;7.158;2023-08-08T07:03:47;100741.00;;;15.80
33877;BMP180;20166;51.738;7.158;2023-08-08T07:06:34;100747.00;;;16.00
33877;BMP180;20166;51.738;7.158;2023-08-08T07:09:21;100745.00;;;15.90
33877;BMP180;20166;51.738;7.158;2023-08-08T07:12:08;100748.00;;;15.80
33877;BMP180;20166;51.738;7.158;2023-08-08T07:14:56;100758.00;;;16.00
33877;BMP180;20166;51.738;7.158;2023-08-08T07:17:43;100743.00;;;16.10
33877;BMP180;20166;51.738;7.158;2023-08-08T07:20:30;100740.00;;;16.00
33877;BMP180;20166;51.738;7.158;2023-08-08T07:23:16;100748.00;;;16.10
33877;BMP180;20166;51.738;7.158;2023-08-08T07:26:03;100738.00;;;16.20
33877;BMP180;20166;51.738;7.158;2023-08-08T07:28:49;100747.00;;;16.20
33877;BMP180;20166;51.738;7.158;2023-08-08T07:31:37;100739.00;;;16.20
33877;BMP180;20166;51.738;7.158;2023-08-08T07:34:23;100736.00;;;16.20
33877;BMP180;20166;51.738;7.158;2023-08-08T07:37:10;100736.00;;;16.30
33877;BMP180;20166;51.738;7.158;2023-08-08T07:39:57;100732.00;;;16.20
33877;BMP180;20166;51.738;7.158;2023-08-08T07:42:43;100734.00;;;16.20
33877;BMP180;20166;51.738;7.158;2023-08-08T07:45:30;100735.00;;;16.30
33877;BMP180;20166;51.738;7.158;2023-08-08T07:48:18;100739.00;;;16.20
33877;BMP180;20166;51.738;7.158;2023-08-08T07:51:05;100742.00;;;16.20
33877;BMP180;20166;51.738;7.158;2023-08-08T07:53:51;100742.00;;;16.40
33877;BMP180;20166;51.738;7.158;2023-08-08T07:56:37;100726.00;;;16.40
33877;BMP180;20166;51.738;7.158;2023-08-08T07:59:23;100726.00;;;16.70
33877;BMP180;20166;51.738;7.158;2023-08-08T08:02:10;100738.00;;;16.80
33877;BMP180;20166;51.738;7.158;2023-08-08T08:04:58;100732.00;;;16.90
33877;BMP180;20166;51.738;7.158;2023-08-08T08:07:44;100722.00;;;16.90
33877;BMP180;20166;51.738;7.158;2023-08-08T08:10:30;100719.00;;;17.00
33877;BMP180;20166;51.738;7.158;2023-08-08T08:13:17;100726.00;;;17.20
33877;BMP180;20166;51.738;7.158;2023-08-08T08:16:03;100722.00;;;17.20
33877;BMP180;20166;51.738;7.158;2023-08-08T08:18:50;100719.00;;;17.40
33877;BMP180;20166;51.738;7.158;2023-08-08T08:21:38;100704.00;;;17.50
33877;BMP180;20166;51.738;7.158;2023-08-08T08:24:24;100712.00;;;17.50
33877;BMP180;20166;51.738;7.158;2023-08-08T08:27:11;100715.00;;;17.50
33877;BMP180;20166;51.738;7.158;2023-08-08T08:29:57;100721.00;;;17.20
33877;BMP180;20166;51.738;7.158;2023-08-08T08:32:44;100716.00;;;16.90
33877;BMP180;20166;51.738;7.158;2023-08-08T08:35:31;100707.00;;;16.80
33877;BMP180;20166;51.738;7.158;2023-08-08T08:38:19;100687.00;;;16.90
33877;BMP180;20166;51.738;7.158;2023-08-08T08:41:06;100703.00;;;17.20
33877;BMP180;20166;51.738;7.158;2023-08-08T08:43:54;100717.00;;;17.00
33877;BMP180;20166;51.738;7.158;2023-08-08T08:46:42;100714.00;;;17.00
33877;BMP180;20166;51.738;7.158;2023-08-08T08:49:29;100732.00;;;17.00
33877;BMP180;20166;51.738;7.158;2023-08-08T08:52:16;100728.00;;;17.10
33877;BMP180;20166;51.738;7.158;2023-08-08T08:55:06;100736.00;;;17.10
33877;BMP180;20166;51.738;7.158;2023-08-08T08:57:52;100734.00;;;17.00
33877;BMP180;20166;51.738;7.158;2023-08-08T09:00:40;100707.00;;;17.20
33877;BMP180;20166;51.738;7.158;2023-08-08T09:03:27;100718.00;;;17.70
33877;BMP180;20166;51.738;7.158;2023-08-08T09:06:13;100702.00;;;17.90
33877;BMP180;20166;51.738;7.158;2023-08-08T09:09:02;100720.00;;;18.20
33877;BMP180;20166;51.738;7.158;2023-08-08T09:12:03;100722.00;;;17.80
33877;BMP180;20166;51.738;7.158;2023-08-08T09:14:54;100724.00;;;18.20
33877;BMP180;20166;51.738;7.158;2023-08-08T09:17:43;100723.00;;;18.30
33877;BMP180;20166;51.738;7.158;2023-08-08T09:20:33;100727.00;;;18.10
33877;BMP180;20166;51.738;7.158;2023-08-08T09:23:20;100725.00;;;17.40
33877;BMP180;20166;51.738;7.158;2023-08-08T09:26:06;100707.00;;;17.80
33877;BMP180;20166;51.738;7.158;2023-08-08T09:28:54;100705.00;;;18.20
33877;BMP180;20166;51.738;7.158;2023-08-08T09:31:41;100704.00;;;18.40
33877;BMP180;20166;51.738;7.158;2023-08-08T09:34:28;100705.00;;;18.30
33877;BMP180;20166;51.738;7.158;2023-08-08T09:37:15;100691.00;;;18.40
33877;BMP180;20166;51.738;7.158;2023-08-08T09:40:05;100683.00;;;18.70
33877;BMP180;20166;51.738;7.158;2023-08-08T09:42:53;100683.00;;;19.00
33877;BMP180;20166;51.738;7.158;2023-08-08T09:45:41;100687.00;;;18.90
33877;BMP180;20166;51.738;7.158;2023-08-08T09:48:29;100689.00;;;19.20
33877;BMP180;20166;51.738;7.158;2023-08-08T09:51:16;100677.00;;;19.40
33877;BMP180;20166;51.738;7.158;2023-08-08T09:54:04;100700.00;;;19.00
33877;BMP180;20166;51.738;7.158;2023-08-08T09:56:51;100692.00;;;19.10
33877;BMP180;20166;51.738;7.158;2023-08-08T09:59:38;100695.00;;;19.20
33877;BMP180;20166;51.738;7.158;2023-08-08T10:02:25;100701.00;;;19.30
33877;BMP180;20166;51.738;7.158;2023-08-08T10:05:13;100698.00;;;19.10
33877;BMP180;20166;51.738;7.158;2023-08-08T10:07:59;100699.00;;;19.40
33877;BMP180;20166;51.738;7.158;2023-08-08T10:10:48;100698.00;;;19.50
33877;BMP180;20166;51.738;7.158;2023-08-08T10:13:36;100689.00;;;19.60
33877;BMP180;20166;51.738;7.158;2023-08-08T10:16:23;100691.00;;;19.80
33877;BMP180;20166;51.738;7.158;2023-08-08T10:19:11;100701.00;;;20.30
33877;BMP180;20166;51.738;7.158;2023-08-08T10:21:58;100697.00;;;20.30
33877;BMP180;20166;51.738;7.158;2023-08-08T10:24:47;100694.00;;;19.90
33877;BMP180;20166;51.738;7.158;2023-08-08T10:27:34;100693.00;;;20.00
33877;BMP180;20166;51.738;7.158;2023-08-08T10:30:21;100706.00;;;19.90
33877;BMP180;20166;51.738;7.158;2023-08-08T10:33:15;100711.00;;;19.60
33877;BMP180;20166;51.738;7.158;2023-08-08T10:36:04;100711.00;;;19.60
33877;BMP180;20166;51.738;7.158;2023-08-08T10:38:52;100708.00;;;19.30
33877;BMP180;20166;51.738;7.158;2023-08-08T10:41:45;100721.00;;;19.40
33877;BMP180;20166;51.738;7.158;2023-08-08T10:44:40;100720.00;;;19.00
33877;BMP180;20166;51.738;7.158;2023-08-08T10:47:34;100724.00;;;19.20
33877;BMP180;20166;51.738;7.158;2023-08-08T10:50:22;100719.00;;;19.60
33877;BMP180;20166;51.738;7.158;2023-08-08T10:53:10;100711.00;;;20.10
33877;BMP180;20166;51.738;7.158;2023-08-08T10:55:58;100712.00;;;20.00
33877;BMP180;20166;51.738;7.158;2023-08-08T10:58:47;100715.00;;;20.10
33877;BMP180;20166;51.738;7.158;2023-08-08T11:01:36;100724.00;;;20.20
33877;BMP180;20166;51.738;7.158;2023-08-08T11:04:24;100725.00;;;19.70
33877;BMP180;20166;51.738;7.158;2023-08-08T11:07:11;100716.00;;;19.70
33877;BMP180;20166;51.738;7.158;2023-08-08T11:10:00;100737.00;;;20.10
33877;BMP180;20166;51.738;7.158;2023-08-08T11:12:57;100710.00;;;20.50
33877;BMP180;20166;51.738;7.158;2023-08-08T11:15:44;100719.00;;;20.50
33877;BMP180;20166;51.738;7.158;2023-08-08T11:18:30;100712.00;;;20.30
33877;BMP180;20166;51.738;7.158;2023-08-08T11:21:17;100699.00;;;19.90
33877;BMP180;20166;51.738;7.158;2023-08-08T11:24:05;100713.00;;;20.80
33877;BMP180;20166;51.738;7.158;2023-08-08T11:26:58;100728.00;;;20.50
33877;BMP180;20166;51.738;7.158;2023-08-08T11:29:48;100704.00;;;20.00
33877;BMP180;20166;51.738;7.158;2023-08-08T11:32:35;100707.00;;;20.50
33877;BMP180;20166;51.738;7.158;2023-08-08T11:35:24;100722.00;;;20.20
33877;BMP180;20166;51.738;7.158;2023-08-08T11:38:10;100723.00;;;19.60
33877;BMP180;20166;51.738;7.158;2023-08-08T11:40:57;100733.00;;;19.30
33877;BMP180;20166;51.738;7.158;2023-08-08T11:43:45;100719.00;;;19.10
33877;BMP180;20166;51.738;7.158;2023-08-08T11:46:32;100736.00;;;19.10
33877;BMP180;20166;51.738;7.158;2023-08-08T11:49:19;100745.00;;;18.80
33877;BMP180;20166;51.738;7.158;2023-08-08T11:52:06;100738.00;;;18.30
33877;BMP180;20166;51.738;7.158;2023-08-08T11:54:53;100722.00;;;18.10
33877;BMP180;20166;51.738;7.158;2023-08-08T11:57:40;100738.00;;;18.30
33877;BMP180;20166;51.738;7.158;2023-08-08T12:00:29;100734.00;;;18.40
33877;BMP180;20166;51.738;7.158;2023-08-08T12:03:17;100722.00;;;18.20
33877;BMP180;20166;51.738;7.158;2023-08-08T12:06:11;100702.00;;;19.50
33877;BMP180;20166;51.738;7.158;2023-08-08T12:08:57;100709.00;;;20.70
33877;BMP180;20166;51.738;7.158;2023-08-08T12:11:46;100715.00;;;20.50
33877;BMP180;20166;51.738;7.158;2023-08-08T12:14:37;100706.00;;;20.00
33877;BMP180;20166;51.738;7.158;2023-08-08T12:17:37;100710.00;;;20.10
33877;BMP180;20166;51.738;7.158;2023-08-08T12:20:27;100705.00;;;19.90
33877;BMP180;20166;51.738;7.158;2023-08-08T12:23:14;100705.00;;;19.40
33877;BMP180;20166;51.738;7.158;2023-08-08T12:26:03;100701.00;;;19.40
33877;BMP180;20166;51.738;7.158;2023-08-08T12:28:50;100706.00;;;19.50
33877;BMP180;20166;51.738;7.158;2023-08-08T12:31:39;100714.00;;;19.70
33877;BMP180;20166;51.738;7.158;2023-08-08T12:34:26;100698.00;;;20.10
33877;BMP180;20166;51.738;7.158;2023-08-08T12:37:13;100711.00;;;19.70
33877;BMP180;20166;51.738;7.158;2023-08-08T12:40:00;100708.00;;;19.80
33877;BMP180;20166;51.738;7.158;2023-08-08T12:42:49;100723.00;;;19.50
33877;BMP180;20166;51.738;7.158;2023-08-08T12:45:36;100723.00;;;19.00
33877;BMP180;20166;51.738;7.158;2023-08-08T12:48:22;100715.00;;;19.00
33877;BMP180;20166;51.738;7.158;2023-08-08T12:51:10;100702.00;;;19.20
33877;BMP180;20166;51.738;7.158;2023-08-08T12:53:56;100687.00;;;19.90
33877;BMP180;20166;51.738;7.158;2023-08-08T12:56:43;100725.00;;;21.50
33877;BMP180;20166;51.738;7.158;2023-08-08T12:59:29;100708.00;;;20.90
33877;BMP180;20166;51.738;7.158;2023-08-08T13:02:15;100729.00;;;20.30
33877;BMP180;20166;51.738;7.158;2023-08-08T13:05:03;100694.00;;;20.00
33877;BMP180;20166;51.738;7.158;2023-08-08T13:07:50;100692.00;;;20.50
33877;BMP180;20166;51.738;7.158;2023-08-08T13:10:37;100705.00;;;21.10
33877;BMP180;20166;51.738;7.158;2023-08-08T13:13:24;100718.00;;;20.60
33877;BMP180;20166;51.738;7.158;2023-08-08T13:16:11;100728.00;;;20.00
33877;BMP180;20166;51.738;7.158;2023-08-08T13:18:57;100718.00;;;19.40
33877;BMP180;20166;51.738;7.158;2023-08-08T13:21:44;100714.00;;;19.30
33877;BMP180;20166;51.738;7.158;2023-08-08T13:24:31;100712.00;;;20.00
33877;BMP180;20166;51.738;7.158;2023-08-08T13:27:17;100711.00;;;20.50
33877;BMP180;20166;51.738;7.158;2023-08-08T13:30:05;100711.00;;;20.50
33877;BMP180;20166;51.738;7.158;2023-08-08T13:32:52;100717.00;;;20.50
33877;BMP180;20166;51.738;7.158;2023-08-08T13:35:39;100717.00;;;20.80
33877;BMP180;20166;51.738;7.158;2023-08-08T13:38:25;100713.00;;;20.50
33877;BMP180;20166;51.738;7.158;2023-08-08T13:41:13;100707.00;;;20.40
33877;BMP180;20166;51.738;7.158;2023-08-08T13:44:01;100725.00;;;20.30
33877;BMP180;20166;51.738;7.158;2023-08-08T13:46:47;100689.00;;;20.50
33877;BMP180;20166;51.738;7.158;2023-08-08T13:49:34;100721.00;;;21.00
33877;BMP180;20166;51.738;7.158;2023-08-08T13:52:21;100720.00;;;20.50
33877;BMP180;20166;51.738;7.158;2023-08-08T13:55:08;100695.00;;;21.00
33877;BMP180;20166;51.738;7.158;2023-08-08T13:57:58;100699.00;;;21.00
33877;BMP180;20166;51.738;7.158;2023-08-08T14:00:45;100674.00;;;21.40
33877;BMP180;20166;51.738;7.158;2023-08-08T14:03:32;100688.00;;;22.80
33877;BMP180;20166;51.738;7.158;2023-08-08T14:06:19;100685.00;;;23.20
33877;BMP180;20166;51.738;7.158;2023-08-08T14:09:06;100690.00;;;23.50
33877;BMP180;20166;51.738;7.158;2023-08-08T14:11:55;100708.00;;;23.10
33877;BMP180;20166;51.738;7.158;2023-08-08T14:14:43;100721.00;;;21.80
33877;BMP180;20166;51.738;7.158;2023-08-08T14:17:30;100721.00;;;22.10
33877;BMP180;20166;51.738;7.158;2023-08-08T14:20:17;100684.00;;;21.70
33877;BMP180;20166;51.738;7.158;2023-08-08T14:23:04;100722.00;;;23.20
33877;BMP180;20166;51.738;7.158;2023-08-08T14:25:51;100728.00;;;21.40
33877;BMP180;20166;51.738;7.158;2023-08-08T14:28:38;100731.00;;;21.00
33877;BMP180;20166;51.738;7.158;2023-08-08T14:31:26;100736.00;;;21.00
33877;BMP180;20166;51.738;7.158;2023-08-08T14:34:14;100744.00;;;20.60
33877;BMP180;20166;51.738;7.158;2023-08-08T14:37:01;100745.00;;;20.70
33877;BMP180;20166;51.738;7.158;2023-08-08T14:39:48;100684.00;;;21.30
33877;BMP180;20166;51.738;7.158;2023-08-08T14:42:34;100727.00;;;23.40
33877;BMP180;20166;51.738;7.158;2023-08-08T14:45:21;100589.00;;;22.30
33877;BMP180;20166;51.738;7.158;2023-08-08T14:48:10;100739.00;;;21.80
33877;BMP180;20166;51.738;7.158;2023-08-08T14:50:56;100746.00;;;21.50
33877;BMP180;20166;51.738;7.158;2023-08-08T14:53:43;100748.00;;;21.50
33877;BMP180;20166;51.738;7.158;2023-08-08T14:56:29;100755.00;;;21.20
33877;BMP180;20166;51.738;7.158;2023-08-08T14:59:16;100750.00;;;20.90
33877;BMP180;20166;51.738;7.158;2023-08-08T15:02:02;100758.00;;;20.40
33877;BMP180;20166;51.738;7.158;2023-08-08T15:04:50;100763.00;;;20.60
33877;BMP180;20166;51.738;7.158;2023-08-08T15:07:37;100770.00;;;20.50
33877;BMP180;20166;51.738;7.158;2023-08-08T15:10:23;100745.00;;;21.30
33877;BMP180;20166;51.738;7.158;2023-08-08T15:13:10;100749.00;;;22.30
33877;BMP180;20166;51.738;7.158;2023-08-08T15:15:57;100760.00;;;21.70
33877;BMP180;20166;51.738;7.158;2023-08-08T15:18:43;100762.00;;;21.40
33877;BMP180;20166;51.738;7.158;2023-08-08T15:21:31;100757.00;;;20.70
33877;BMP180;20166;51.738;7.158;2023-08-08T15:24:17;224519.00;;;204.60
33877;BMP180;20166;51.738;7.158;2023-08-08T15:27:04;224519.00;;;204.60
33877;BMP180;20166;51.738;7.158;2023-08-08T15:29:51;224519.00;;;204.60
33877;BMP180;20166;51.738;7.158;2023-08-08T15:32:38;224519.00;;;204.60
33877;BMP180;20166;51.738;7.158;2023-08-08T15:35:24;224519.00;;;204.60
33877;BMP180;20166;51.738;7.158;2023-08-08T15:38:14;224519.00;;;204.60
33877;BMP180;20166;51.738;7.158;2023-08-08T15:41:00;224519.00;;;204.60
33877;BMP180;20166;51.738;7.158;2023-08-08T15:43:47;224519.00;;;204.60
33877;BMP180;20166;51.738;7.158;2023-08-08T15:46:33;224519.00;;;204.60
33877;BMP180;20166;51.738;7.158;2023-08-08T15:49:20;224519.00;;;204.60